4XCEH LLBG-LLBG
Flight info
| Callsign | 4XCEH |
|---|---|
| Flight time | 0h 22m |
| Altitude | 2000 |
| Route | CIRCUITS |
| Aircraft | C172/L-SFG/C |
Departure
| Time | 2026-05-07 20:15 |
|---|---|
| Airport | Ben Gurion International Airport (LLBG) |
Arrival
| Time | 2026-05-07 20:38 |
|---|---|
| Airport | Ben Gurion International Airport (LLBG) |
| Time | Latitude | Longitude | Altitude | Speed | Heading |
|---|---|---|---|---|---|
| 2026-05-07 20:03 | 32.00687 | 34.89603 | 124 ft | 0 kts | 298° |
| 2026-05-07 20:08 | 32.00708 | 34.89586 | 123 ft | 1 kts | 16° |
| 2026-05-07 20:09 | 32.00722 | 34.89644 | 123 ft | 15 kts | 82° |
| 2026-05-07 20:09 | 32.00795 | 34.89755 | 125 ft | 19 kts | 348° |
| 2026-05-07 20:09 | 32.00865 | 34.89660 | 124 ft | 16 kts | 302° |
| 2026-05-07 20:10 | 32.00928 | 34.89533 | 126 ft | 14 kts | 298° |
| 2026-05-07 20:10 | 32.00981 | 34.89414 | 126 ft | 15 kts | 298° |
| 2026-05-07 20:10 | 32.00992 | 34.89388 | 125 ft | 8 kts | 293° |
| 2026-05-07 20:10 | 32.01024 | 34.89334 | 125 ft | 8 kts | 317° |
| 2026-05-07 20:11 | 32.01107 | 34.89332 | 126 ft | 18 kts | 30° |
| 2026-05-07 20:11 | 32.01224 | 34.89407 | 125 ft | 25 kts | 29° |
| 2026-05-07 20:11 | 32.01350 | 34.89491 | 126 ft | 18 kts | 28° |
| 2026-05-07 20:11 | 32.01483 | 34.89574 | 127 ft | 20 kts | 30° |
| 2026-05-07 20:12 | 32.01597 | 34.89648 | 127 ft | 13 kts | 29° |
| 2026-05-07 20:12 | 32.01677 | 34.89700 | 128 ft | 19 kts | 28° |
| 2026-05-07 20:12 | 32.01831 | 34.89772 | 128 ft | 25 kts | 341° |
| 2026-05-07 20:12 | 32.01831 | 34.89649 | 124 ft | 13 kts | 260° |
| 2026-05-07 20:13 | 32.01827 | 34.89621 | 126 ft | 0 kts | 258° |
| 2026-05-07 20:14 | 32.01827 | 34.89618 | 126 ft | 3 kts | 259° |
| 2026-05-07 20:14 | 32.01814 | 34.89525 | 126 ft | 23 kts | 261° |
| 2026-05-07 20:14 | 32.01754 | 34.89126 | 123 ft | 73 kts | 263° |
| 2026-05-07 20:15 | 32.01640 | 34.88428 | 202 ft | 96 kts | 261° |
| 2026-05-07 20:15 | 32.01508 | 34.87606 | 334 ft | 105 kts | 262° |
| 2026-05-07 20:15 | 32.01510 | 34.86784 | 624 ft | 92 kts | 300° |
| 2026-05-07 20:15 | 32.01994 | 34.86389 | 871 ft | 89 kts | 348° |
| 2026-05-07 20:16 | 32.02487 | 34.86657 | 1012 ft | 105 kts | 77° |
| 2026-05-07 20:16 | 32.02503 | 34.87552 | 1149 ft | 111 kts | 83° |
| 2026-05-07 20:16 | 32.02492 | 34.88474 | 1289 ft | 113 kts | 85° |
| 2026-05-07 20:16 | 32.02470 | 34.89394 | 1456 ft | 112 kts | 85° |
| 2026-05-07 20:17 | 32.02441 | 34.90331 | 1589 ft | 111 kts | 82° |
| 2026-05-07 20:17 | 32.02486 | 34.91246 | 1724 ft | 112 kts | 77° |
| 2026-05-07 20:17 | 32.02428 | 34.92122 | 1739 ft | 108 kts | 122° |
| 2026-05-07 20:17 | 32.01812 | 34.92015 | 1557 ft | 105 kts | 260° |
| 2026-05-07 20:18 | 32.01998 | 34.91100 | 981 ft | 125 kts | 285° |
| 2026-05-07 20:18 | 32.01904 | 34.90204 | 651 ft | 92 kts | 265° |
| 2026-05-07 20:18 | 32.01810 | 34.89514 | 277 ft | 81 kts | 263° |
| 2026-05-07 20:18 | 32.01724 | 34.88927 | 125 ft | 62 kts | 265° |
| 2026-05-07 20:19 | 32.01659 | 34.88444 | 120 ft | 75 kts | 263° |
| 2026-05-07 20:19 | 32.01536 | 34.87764 | 201 ft | 90 kts | 269° |
| 2026-05-07 20:19 | 32.01842 | 34.87243 | 437 ft | 82 kts | 323° |
| 2026-05-07 20:19 | 32.02276 | 34.86803 | 475 ft | 82 kts | 323° |
| 2026-05-07 20:20 | 32.02411 | 34.86660 | 495 ft | 80 kts | 320° |
| 2026-05-07 20:20 | 32.02706 | 34.86376 | 506 ft | 84 kts | 327° |
| 2026-05-07 20:21 | 32.01810 | 34.85845 | 370 ft | 103 kts | 115° |
| 2026-05-07 20:21 | 32.01480 | 34.86527 | 188 ft | 90 kts | 120° |
| 2026-05-07 20:21 | 32.01193 | 34.87112 | 108 ft | 72 kts | 119° |
| 2026-05-07 20:22 | 32.00938 | 34.87620 | 134 ft | 82 kts | 117° |
| 2026-05-07 20:22 | 32.00622 | 34.88239 | 260 ft | 94 kts | 119° |
| 2026-05-07 20:22 | 32.00261 | 34.88884 | 501 ft | 98 kts | 120° |
| 2026-05-07 20:22 | 31.99822 | 34.89397 | 728 ft | 88 kts | 170° |
| 2026-05-07 20:23 | 31.99268 | 34.89164 | 827 ft | 91 kts | 208° |
| 2026-05-07 20:23 | 31.98680 | 34.88856 | 950 ft | 90 kts | 208° |
| 2026-05-07 20:23 | 31.98432 | 34.88299 | 1032 ft | 78 kts | 301° |
| 2026-05-07 20:23 | 31.98666 | 34.87705 | 1121 ft | 84 kts | 308° |
| 2026-05-07 20:24 | 31.98999 | 34.87099 | 1080 ft | 88 kts | 313° |
| 2026-05-07 20:24 | 31.99367 | 34.86502 | 1067 ft | 91 kts | 310° |
| 2026-05-07 20:24 | 31.99747 | 34.85922 | 1104 ft | 86 kts | 314° |
| 2026-05-07 20:24 | 32.00111 | 34.85305 | 1026 ft | 96 kts | 309° |
| 2026-05-07 20:25 | 32.00499 | 34.84653 | 970 ft | 99 kts | 312° |
| 2026-05-07 20:25 | 32.00922 | 34.84006 | 929 ft | 98 kts | 309° |
| 2026-05-07 20:25 | 32.01356 | 34.83342 | 780 ft | 107 kts | 314° |
| 2026-05-07 20:25 | 32.01897 | 34.83037 | 847 ft | 71 kts | 15° |
| 2026-05-07 20:26 | 32.02283 | 34.83357 | 823 ft | 66 kts | 52° |
| 2026-05-07 20:26 | 32.02590 | 34.83837 | 782 ft | 83 kts | 51° |
| 2026-05-07 20:26 | 32.02828 | 34.84429 | 909 ft | 78 kts | 86° |
| 2026-05-07 20:26 | 32.02481 | 34.84924 | 825 ft | 89 kts | 145° |
| 2026-05-07 20:27 | 32.02076 | 34.85419 | 658 ft | 80 kts | 115° |
| 2026-05-07 20:27 | 32.01776 | 34.85967 | 390 ft | 77 kts | 117° |
| 2026-05-07 20:27 | 32.01515 | 34.86490 | 193 ft | 71 kts | 120° |
| 2026-05-07 20:27 | 32.01280 | 34.86944 | 107 ft | 56 kts | 114° |
| 2026-05-07 20:28 | 32.01079 | 34.87344 | 112 ft | 68 kts | 120° |
| 2026-05-07 20:28 | 32.00836 | 34.87828 | 219 ft | 70 kts | 118° |
| 2026-05-07 20:28 | 32.00552 | 34.88352 | 377 ft | 77 kts | 122° |
| 2026-05-07 20:28 | 32.00262 | 34.88856 | 615 ft | 78 kts | 130° |
| 2026-05-07 20:29 | 31.99775 | 34.88857 | 812 ft | 81 kts | 225° |
| 2026-05-07 20:29 | 31.99221 | 34.88427 | 851 ft | 106 kts | 218° |
| 2026-05-07 20:29 | 31.99113 | 34.87752 | 1100 ft | 88 kts | 303° |
| 2026-05-07 20:29 | 31.99402 | 34.87068 | 1224 ft | 100 kts | 306° |
| 2026-05-07 20:30 | 31.99739 | 34.86306 | 1318 ft | 107 kts | 305° |
| 2026-05-07 20:30 | 32.00083 | 34.85582 | 1354 ft | 102 kts | 306° |
| 2026-05-07 20:30 | 32.00463 | 34.84874 | 1341 ft | 103 kts | 311° |
| 2026-05-07 20:30 | 32.00869 | 34.84137 | 1194 ft | 111 kts | 308° |
| 2026-05-07 20:31 | 32.01311 | 34.83468 | 1108 ft | 99 kts | 327° |
| 2026-05-07 20:31 | 32.01888 | 34.83455 | 967 ft | 84 kts | 28° |
| 2026-05-07 20:31 | 32.02317 | 34.83832 | 925 ft | 71 kts | 37° |
| 2026-05-07 20:31 | 32.02653 | 34.84240 | 886 ft | 64 kts | 60° |
| 2026-05-07 20:32 | 32.02435 | 34.84710 | 732 ft | 77 kts | 124° |
| 2026-05-07 20:32 | 32.02145 | 34.85236 | 582 ft | 76 kts | 121° |
| 2026-05-07 20:32 | 32.01871 | 34.85771 | 381 ft | 74 kts | 118° |
| 2026-05-07 20:32 | 32.01623 | 34.86247 | 216 ft | 65 kts | 116° |
| 2026-05-07 20:33 | 32.01412 | 34.86683 | 117 ft | 55 kts | 119° |
| 2026-05-07 20:33 | 32.01242 | 34.87029 | 107 ft | 53 kts | 123° |
| 2026-05-07 20:33 | 32.00986 | 34.87527 | 157 ft | 82 kts | 118° |
| 2026-05-07 20:33 | 32.00677 | 34.88080 | 375 ft | 83 kts | 119° |
| 2026-05-07 20:34 | 32.00346 | 34.88685 | 625 ft | 86 kts | 140° |
| 2026-05-07 20:34 | 31.99771 | 34.88543 | 754 ft | 97 kts | 227° |
| 2026-05-07 20:34 | 31.99298 | 34.87985 | 978 ft | 97 kts | 243° |
| 2026-05-07 20:34 | 31.99435 | 34.87323 | 1136 ft | 94 kts | 309° |
| 2026-05-07 20:35 | 31.99793 | 34.86642 | 1222 ft | 99 kts | 306° |
| 2026-05-07 20:35 | 32.00111 | 34.85933 | 1196 ft | 97 kts | 306° |
| 2026-05-07 20:35 | 32.00424 | 34.85241 | 1206 ft | 93 kts | 307° |
| 2026-05-07 20:35 | 32.00772 | 34.84561 | 1075 ft | 102 kts | 307° |
| 2026-05-07 20:36 | 32.01171 | 34.83861 | 932 ft | 96 kts | 313° |
| 2026-05-07 20:36 | 32.01671 | 34.83548 | 859 ft | 81 kts | 16° |
| 2026-05-07 20:36 | 32.02126 | 34.83924 | 755 ft | 80 kts | 37° |
| 2026-05-07 20:36 | 32.02469 | 34.84300 | 715 ft | 58 kts | 41° |
| 2026-05-07 20:37 | 32.02448 | 34.84753 | 582 ft | 70 kts | 131° |
| 2026-05-07 20:37 | 32.02160 | 34.85225 | 470 ft | 70 kts | 118° |
| 2026-05-07 20:37 | 32.01906 | 34.85702 | 322 ft | 67 kts | 120° |
| 2026-05-07 20:37 | 32.01676 | 34.86136 | 199 ft | 57 kts | 111° |
| 2026-05-07 20:38 | 32.01474 | 34.86566 | 132 ft | 60 kts | 119° |
| 2026-05-07 20:38 | 32.01283 | 34.86948 | 107 ft | 46 kts | 119° |
| 2026-05-07 20:38 | 32.01069 | 34.87372 | 131 ft | 67 kts | 119° |
| 2026-05-07 20:38 | 32.00717 | 34.87725 | 275 ft | 75 kts | 194° |
| 2026-05-07 20:39 | 32.00232 | 34.87414 | 386 ft | 88 kts | 213° |
| 2026-05-07 20:39 | 31.99806 | 34.86926 | 560 ft | 82 kts | 275° |
| 2026-05-07 20:39 | 32.00073 | 34.86391 | 748 ft | 80 kts | 306° |
| 2026-05-07 20:39 | 32.00365 | 34.85799 | 888 ft | 85 kts | 304° |
| 2026-05-07 20:40 | 32.00681 | 34.85152 | 907 ft | 94 kts | 307° |
| 2026-05-07 20:40 | 32.01056 | 34.84518 | 885 ft | 97 kts | 312° |
| 2026-05-07 20:40 | 32.01486 | 34.83870 | 842 ft | 101 kts | 309° |
| 2026-05-07 20:40 | 32.01903 | 34.83343 | 944 ft | 77 kts | 1° |
| 2026-05-07 20:41 | 32.02186 | 34.83788 | 932 ft | 68 kts | 75° |
| 2026-05-07 20:41 | 32.02188 | 34.84358 | 708 ft | 67 kts | 92° |
| 2026-05-07 20:41 | 32.02114 | 34.84882 | 549 ft | 63 kts | 100° |
| 2026-05-07 20:41 | 32.01977 | 34.85380 | 446 ft | 64 kts | 108° |
| 2026-05-07 20:42 | 32.01804 | 34.85842 | 305 ft | 60 kts | 111° |
| 2026-05-07 20:42 | 32.01605 | 34.86279 | 205 ft | 63 kts | 116° |
| 2026-05-07 20:42 | 32.01388 | 34.86723 | 139 ft | 65 kts | 117° |
| 2026-05-07 20:42 | 32.01179 | 34.87151 | 109 ft | 50 kts | 121° |
| 2026-05-07 20:43 | 32.01031 | 34.87436 | 112 ft | 38 kts | 120° |
| 2026-05-07 20:43 | 32.00901 | 34.87686 | 113 ft | 36 kts | 118° |
| 2026-05-07 20:43 | 32.00767 | 34.87963 | 114 ft | 35 kts | 114° |
| 2026-05-07 20:43 | 32.00779 | 34.88064 | 115 ft | 8 kts | 24° |
| 2026-05-07 20:44 | 32.00833 | 34.88093 | 115 ft | 10 kts | 31° |
| 2026-05-07 20:44 | 32.00900 | 34.88150 | 115 ft | 14 kts | 50° |
| 2026-05-07 20:44 | 32.00895 | 34.88244 | 116 ft | 11 kts | 122° |
| 2026-05-07 20:44 | 32.00883 | 34.88266 | 116 ft | 0 kts | 122° |
| 2026-05-07 20:45 | 32.00882 | 34.88267 | 116 ft | 2 kts | 122° |
| 2026-05-07 20:45 | 32.00847 | 34.88339 | 117 ft | 19 kts | 120° |
| 2026-05-07 20:45 | 32.00760 | 34.88506 | 118 ft | 28 kts | 121° |
| 2026-05-07 20:46 | 32.00645 | 34.88729 | 118 ft | 35 kts | 121° |
| 2026-05-07 20:46 | 32.00538 | 34.88926 | 121 ft | 17 kts | 124° |
| 2026-05-07 20:46 | 32.00500 | 34.88992 | 122 ft | 5 kts | 131° |
| 2026-05-07 20:46 | 32.00493 | 34.89004 | 122 ft | 0 kts | 121° |
| 2026-05-07 20:47 | 32.00492 | 34.89006 | 119 ft | 2 kts | 120° |
| 2026-05-07 20:47 | 32.00490 | 34.89009 | 120 ft | 0 kts | 120° |
| 2026-05-07 20:47 | 32.00480 | 34.89031 | 119 ft | 10 kts | 120° |
| 2026-05-07 20:48 | 32.00416 | 34.89162 | 119 ft | 26 kts | 122° |
| 2026-05-07 20:48 | 32.00302 | 34.89381 | 121 ft | 35 kts | 124° |
| 2026-05-07 20:48 | 32.00238 | 34.89563 | 125 ft | 13 kts | 55° |
| 2026-05-07 20:48 | 32.00310 | 34.89603 | 126 ft | 11 kts | 17° |
| 2026-05-07 20:49 | 32.00376 | 34.89625 | 125 ft | 9 kts | 14° |
| 2026-05-07 20:49 | 32.00431 | 34.89645 | 125 ft | 7 kts | 14° |
| 2026-05-07 20:49 | 32.00476 | 34.89659 | 123 ft | 6 kts | 14° |
| 2026-05-07 20:49 | 32.00521 | 34.89670 | 125 ft | 8 kts | 7° |
| 2026-05-07 20:50 | 32.00583 | 34.89635 | 124 ft | 11 kts | 324° |
| 2026-05-07 20:50 | 32.00625 | 34.89628 | 122 ft | 9 kts | 30° |